sensor_id;sensor_type;location;lat;lon;timestamp;temperature;humidity
324;DHT22;149;51.094;17.002;2023-11-21T00:02:11;7.70;99.90
324;DHT22;149;51.094;17.002;2023-11-21T00:04:38;7.80;99.90
324;DHT22;149;51.094;17.002;2023-11-21T00:07:05;7.80;99.90
324;DHT22;149;51.094;17.002;2023-11-21T00:09:33;7.70;99.90
324;DHT22;149;51.094;17.002;2023-11-21T00:12:00;7.70;99.90
324;DHT22;149;51.094;17.002;2023-11-21T00:14:27;7.70;99.90
324;DHT22;149;51.094;17.002;2023-11-21T00:16:54;7.60;99.90
324;DHT22;149;51.094;17.002;2023-11-21T00:19:22;7.60;99.90
324;DHT22;149;51.094;17.002;2023-11-21T00:21:51;7.50;99.90
324;DHT22;149;51.094;17.002;2023-11-21T00:24:18;7.60;99.90
324;DHT22;149;51.094;17.002;2023-11-21T00:26:45;7.60;99.90
324;DHT22;149;51.094;17.002;2023-11-21T00:29:15;7.60;99.90
324;DHT22;149;51.094;17.002;2023-11-21T00:31:46;7.60;99.90
324;DHT22;149;51.094;17.002;2023-11-21T00:34:13;7.60;99.90
324;DHT22;149;51.094;17.002;2023-11-21T00:36:40;7.60;99.90
324;DHT22;149;51.094;17.002;2023-11-21T00:39:08;7.60;99.90
324;DHT22;149;51.094;17.002;2023-11-21T00:41:35;7.50;99.90
324;DHT22;149;51.094;17.002;2023-11-21T00:44:03;7.60;99.90
324;DHT22;149;51.094;17.002;2023-11-21T00:46:31;7.60;99.90
324;DHT22;149;51.094;17.002;2023-11-21T00:48:59;7.60;99.90
324;DHT22;149;51.094;17.002;2023-11-21T00:51:27;7.60;99.90
324;DHT22;149;51.094;17.002;2023-11-21T00:53:56;7.50;99.90
324;DHT22;149;51.094;17.002;2023-11-21T00:56:24;7.60;99.90
324;DHT22;149;51.094;17.002;2023-11-21T00:58:51;7.60;99.90
324;DHT22;149;51.094;17.002;2023-11-21T01:01:20;7.60;99.90
324;DHT22;149;51.094;17.002;2023-11-21T01:03:52;7.50;99.90
324;DHT22;149;51.094;17.002;2023-11-21T01:06:22;7.50;99.90
324;DHT22;149;51.094;17.002;2023-11-21T01:08:49;7.50;99.90
324;DHT22;149;51.094;17.002;2023-11-21T01:11:17;7.50;99.90
324;DHT22;149;51.094;17.002;2023-11-21T01:13:44;7.50;99.90
324;DHT22;149;51.094;17.002;2023-11-21T01:16:16;7.60;99.90
324;DHT22;149;51.094;17.002;2023-11-21T01:18:44;7.40;99.90
324;DHT22;149;51.094;17.002;2023-11-21T01:21:14;7.50;99.90
324;DHT22;149;51.094;17.002;2023-11-21T01:23:50;7.50;99.90
324;DHT22;149;51.094;17.002;2023-11-21T01:26:19;7.40;99.90
324;DHT22;149;51.094;17.002;2023-11-21T01:28:48;7.50;99.90
324;DHT22;149;51.094;17.002;2023-11-21T01:31:18;7.70;99.90
324;DHT22;149;51.094;17.002;2023-11-21T01:33:47;7.50;99.90
324;DHT22;149;51.094;17.002;2023-11-21T01:36:15;7.60;99.90
324;DHT22;149;51.094;17.002;2023-11-21T01:38:44;7.40;99.90
324;DHT22;149;51.094;17.002;2023-11-21T01:41:12;7.60;99.90
324;DHT22;149;51.094;17.002;2023-11-21T01:43:41;7.60;99.90
324;DHT22;149;51.094;17.002;2023-11-21T01:46:09;7.60;99.90
324;DHT22;149;51.094;17.002;2023-11-21T01:48:39;7.60;99.90
324;DHT22;149;51.094;17.002;2023-11-21T01:51:07;7.50;99.90
324;DHT22;149;51.094;17.002;2023-11-21T01:53:40;7.50;99.90
324;DHT22;149;51.094;17.002;2023-11-21T01:56:17;7.60;99.90
324;DHT22;149;51.094;17.002;2023-11-21T01:58:45;7.50;99.90
324;DHT22;149;51.094;17.002;2023-11-21T02:01:14;7.30;99.90
324;DHT22;149;51.094;17.002;2023-11-21T02:03:41;7.50;99.90
324;DHT22;149;51.094;17.002;2023-11-21T02:06:08;7.50;99.90
324;DHT22;149;51.094;17.002;2023-11-21T02:08:37;7.40;99.90
324;DHT22;149;51.094;17.002;2023-11-21T02:11:06;7.40;99.90
324;DHT22;149;51.094;17.002;2023-11-21T02:13:34;7.40;99.90
324;DHT22;149;51.094;17.002;2023-11-21T02:16:04;7.40;99.90
324;DHT22;149;51.094;17.002;2023-11-21T02:18:36;7.40;99.90
324;DHT22;149;51.094;17.002;2023-11-21T02:21:05;7.50;99.90
324;DHT22;149;51.094;17.002;2023-11-21T02:23:36;7.40;99.90
324;DHT22;149;51.094;17.002;2023-11-21T02:26:07;7.40;99.90
324;DHT22;149;51.094;17.002;2023-11-21T02:28:37;7.30;99.90
324;DHT22;149;51.094;17.002;2023-11-21T02:31:06;7.50;99.90
324;DHT22;149;51.094;17.002;2023-11-21T02:33:35;7.50;99.90
324;DHT22;149;51.094;17.002;2023-11-21T02:36:05;7.50;99.90
324;DHT22;149;51.094;17.002;2023-11-21T02:38:34;7.50;99.90
324;DHT22;149;51.094;17.002;2023-11-21T02:41:02;7.50;99.90
324;DHT22;149;51.094;17.002;2023-11-21T02:43:32;7.50;99.90
324;DHT22;149;51.094;17.002;2023-11-21T02:45:59;7.50;99.90
324;DHT22;149;51.094;17.002;2023-11-21T02:48:26;7.40;99.90
324;DHT22;149;51.094;17.002;2023-11-21T02:50:55;7.50;99.90
324;DHT22;149;51.094;17.002;2023-11-21T02:53:23;7.50;99.90
324;DHT22;149;51.094;17.002;2023-11-21T02:55:59;7.40;99.90
324;DHT22;149;51.094;17.002;2023-11-21T02:58:26;7.50;99.90
324;DHT22;149;51.094;17.002;2023-11-21T03:00:57;7.50;99.90
324;DHT22;149;51.094;17.002;2023-11-21T03:03:27;7.50;99.90
324;DHT22;149;51.094;17.002;2023-11-21T03:05:56;7.40;99.90
324;DHT22;149;51.094;17.002;2023-11-21T03:08:23;7.40;99.90
324;DHT22;149;51.094;17.002;2023-11-21T03:10:52;7.40;99.90
324;DHT22;149;51.094;17.002;2023-11-21T03:13:20;7.40;99.90
324;DHT22;149;51.094;17.002;2023-11-21T03:15:48;7.50;99.90
324;DHT22;149;51.094;17.002;2023-11-21T03:18:16;7.40;99.90
324;DHT22;149;51.094;17.002;2023-11-21T03:20:47;7.50;99.90
324;DHT22;149;51.094;17.002;2023-11-21T03:23:14;7.50;99.90
324;DHT22;149;51.094;17.002;2023-11-21T03:25:42;7.40;99.90
324;DHT22;149;51.094;17.002;2023-11-21T03:28:10;7.30;99.90
324;DHT22;149;51.094;17.002;2023-11-21T03:30:40;7.60;99.90
324;DHT22;149;51.094;17.002;2023-11-21T03:33:07;7.40;99.90
324;DHT22;149;51.094;17.002;2023-11-21T03:35:34;7.50;99.90
324;DHT22;149;51.094;17.002;2023-11-21T03:38:02;7.40;99.90
324;DHT22;149;51.094;17.002;2023-11-21T03:40:29;7.60;99.90
324;DHT22;149;51.094;17.002;2023-11-21T03:42:56;7.60;99.90
324;DHT22;149;51.094;17.002;2023-11-21T03:45:23;7.40;99.90
324;DHT22;149;51.094;17.002;2023-11-21T03:47:50;7.40;99.90
324;DHT22;149;51.094;17.002;2023-11-21T03:50:17;7.50;99.90
324;DHT22;149;51.094;17.002;2023-11-21T03:52:43;7.30;99.90
324;DHT22;149;51.094;17.002;2023-11-21T03:55:11;7.40;99.90
324;DHT22;149;51.094;17.002;2023-11-21T03:57:38;7.40;99.90
324;DHT22;149;51.094;17.002;2023-11-21T04:00:06;7.40;99.90
324;DHT22;149;51.094;17.002;2023-11-21T04:02:35;7.40;99.90
324;DHT22;149;51.094;17.002;2023-11-21T04:05:02;7.40;99.90
324;DHT22;149;51.094;17.002;2023-11-21T04:07:30;7.40;99.90
324;DHT22;149;51.094;17.002;2023-11-21T04:09:57;7.40;99.90
324;DHT22;149;51.094;17.002;2023-11-21T04:12:24;7.40;99.90
324;DHT22;149;51.094;17.002;2023-11-21T04:14:52;7.40;99.90
324;DHT22;149;51.094;17.002;2023-11-21T04:17:21;7.40;99.90
324;DHT22;149;51.094;17.002;2023-11-21T04:19:49;7.30;99.90
324;DHT22;149;51.094;17.002;2023-11-21T04:22:23;7.50;99.90
324;DHT22;149;51.094;17.002;2023-11-21T04:24:51;7.40;99.90
324;DHT22;149;51.094;17.002;2023-11-21T04:27:18;7.40;99.90
324;DHT22;149;51.094;17.002;2023-11-21T04:29:45;7.40;99.90
324;DHT22;149;51.094;17.002;2023-11-21T04:32:12;7.40;99.90
324;DHT22;149;51.094;17.002;2023-11-21T04:34:40;7.40;99.90
324;DHT22;149;51.094;17.002;2023-11-21T04:37:07;7.40;99.90
324;DHT22;149;51.094;17.002;2023-11-21T04:39:35;7.40;99.90
324;DHT22;149;51.094;17.002;2023-11-21T04:42:02;7.40;99.90
324;DHT22;149;51.094;17.002;2023-11-21T04:44:29;7.40;99.90
324;DHT22;149;51.094;17.002;2023-11-21T04:46:57;7.30;99.90
324;DHT22;149;51.094;17.002;2023-11-21T04:49:24;7.30;99.90
324;DHT22;149;51.094;17.002;2023-11-21T04:51:52;7.40;99.90
324;DHT22;149;51.094;17.002;2023-11-21T04:54:19;7.30;99.90
324;DHT22;149;51.094;17.002;2023-11-21T04:56:46;7.30;99.90
324;DHT22;149;51.094;17.002;2023-11-21T04:59:16;7.30;99.90
324;DHT22;149;51.094;17.002;2023-11-21T05:01:43;7.40;99.90
324;DHT22;149;51.094;17.002;2023-11-21T05:04:11;7.30;99.90
324;DHT22;149;51.094;17.002;2023-11-21T05:06:39;7.30;99.90
324;DHT22;149;51.094;17.002;2023-11-21T05:09:10;7.40;99.90
324;DHT22;149;51.094;17.002;2023-11-21T05:11:39;7.30;99.90
324;DHT22;149;51.094;17.002;2023-11-21T05:14:08;7.30;99.90
324;DHT22;149;51.094;17.002;2023-11-21T05:16:35;7.30;99.90
324;DHT22;149;51.094;17.002;2023-11-21T05:19:06;7.40;99.90
324;DHT22;149;51.094;17.002;2023-11-21T05:21:36;7.40;99.90
324;DHT22;149;51.094;17.002;2023-11-21T05:24:05;7.30;99.90
324;DHT22;149;51.094;17.002;2023-11-21T05:26:32;7.40;99.90
324;DHT22;149;51.094;17.002;2023-11-21T05:29:01;7.40;99.90
324;DHT22;149;51.094;17.002;2023-11-21T05:31:27;7.50;99.90
324;DHT22;149;51.094;17.002;2023-11-21T05:34:00;7.30;99.90
324;DHT22;149;51.094;17.002;2023-11-21T05:36:27;7.30;99.90
324;DHT22;149;51.094;17.002;2023-11-21T05:38:54;7.30;99.90
324;DHT22;149;51.094;17.002;2023-11-21T05:41:21;7.40;99.90
324;DHT22;149;51.094;17.002;2023-11-21T05:43:48;7.40;99.90
324;DHT22;149;51.094;17.002;2023-11-21T05:46:16;7.30;99.90
324;DHT22;149;51.094;17.002;2023-11-21T05:48:48;7.30;99.90
324;DHT22;149;51.094;17.002;2023-11-21T05:51:16;7.30;99.90
324;DHT22;149;51.094;17.002;2023-11-21T05:53:44;7.30;99.90
324;DHT22;149;51.094;17.002;2023-11-21T05:56:11;7.30;99.90
324;DHT22;149;51.094;17.002;2023-11-21T05:58:38;7.20;99.90
324;DHT22;149;51.094;17.002;2023-11-21T06:01:06;7.30;99.90
324;DHT22;149;51.094;17.002;2023-11-21T06:03:35;7.30;99.90
324;DHT22;149;51.094;17.002;2023-11-21T06:06:21;7.30;99.90
324;DHT22;149;51.094;17.002;2023-11-21T06:08:49;7.30;99.90
324;DHT22;149;51.094;17.002;2023-11-21T06:11:18;7.30;99.90
324;DHT22;149;51.094;17.002;2023-11-21T06:13:46;7.20;99.90
324;DHT22;149;51.094;17.002;2023-11-21T06:16:17;7.30;99.90
324;DHT22;149;51.094;17.002;2023-11-21T06:18:48;7.30;99.90
324;DHT22;149;51.094;17.002;2023-11-21T06:21:16;7.40;99.90
324;DHT22;149;51.094;17.002;2023-11-21T06:23:45;7.30;99.90
324;DHT22;149;51.094;17.002;2023-11-21T06:26:12;7.30;99.90
324;DHT22;149;51.094;17.002;2023-11-21T06:28:39;7.30;99.90
324;DHT22;149;51.094;17.002;2023-11-21T06:31:10;7.30;99.90
324;DHT22;149;51.094;17.002;2023-11-21T06:33:37;7.40;99.90
324;DHT22;149;51.094;17.002;2023-11-21T06:36:05;7.30;99.90
324;DHT22;149;51.094;17.002;2023-11-21T06:38:32;7.30;99.90
324;DHT22;149;51.094;17.002;2023-11-21T06:41:00;7.30;99.90
324;DHT22;149;51.094;17.002;2023-11-21T06:43:31;7.30;99.90
324;DHT22;149;51.094;17.002;2023-11-21T06:46:00;7.30;99.90
324;DHT22;149;51.094;17.002;2023-11-21T06:48:28;7.30;99.90
324;DHT22;149;51.094;17.002;2023-11-21T06:50:56;7.30;99.90
324;DHT22;149;51.094;17.002;2023-11-21T06:53:23;7.20;99.90
324;DHT22;149;51.094;17.002;2023-11-21T06:55:55;7.30;99.90
324;DHT22;149;51.094;17.002;2023-11-21T06:58:22;7.30;99.90
324;DHT22;149;51.094;17.002;2023-11-21T07:00:49;7.30;99.90
324;DHT22;149;51.094;17.002;2023-11-21T07:03:22;7.50;99.90
324;DHT22;149;51.094;17.002;2023-11-21T07:05:54;7.30;99.90
324;DHT22;149;51.094;17.002;2023-11-21T07:08:23;7.30;99.90
324;DHT22;149;51.094;17.002;2023-11-21T07:10:54;7.30;99.90
324;DHT22;149;51.094;17.002;2023-11-21T07:13:21;7.40;99.90
324;DHT22;149;51.094;17.002;2023-11-21T07:15:49;7.20;99.90
324;DHT22;149;51.094;17.002;2023-11-21T07:18:16;7.30;99.90
324;DHT22;149;51.094;17.002;2023-11-21T07:20:43;7.30;99.90
324;DHT22;149;51.094;17.002;2023-11-21T07:23:10;7.30;99.90
324;DHT22;149;51.094;17.002;2023-11-21T07:25:37;7.40;99.90
324;DHT22;149;51.094;17.002;2023-11-21T07:28:05;7.40;99.90
324;DHT22;149;51.094;17.002;2023-11-21T07:30:32;7.30;99.90
324;DHT22;149;51.094;17.002;2023-11-21T07:32:59;7.40;99.90
324;DHT22;149;51.094;17.002;2023-11-21T07:35:26;7.30;99.90
324;DHT22;149;51.094;17.002;2023-11-21T07:37:53;7.50;99.90
324;DHT22;149;51.094;17.002;2023-11-21T07:40:20;7.30;99.90
324;DHT22;149;51.094;17.002;2023-11-21T07:42:49;7.40;99.90
324;DHT22;149;51.094;17.002;2023-11-21T07:45:18;7.40;99.90
324;DHT22;149;51.094;17.002;2023-11-21T07:47:49;7.40;99.90
324;DHT22;149;51.094;17.002;2023-11-21T07:50:16;7.60;99.90
324;DHT22;149;51.094;17.002;2023-11-21T07:52:44;7.40;99.90
324;DHT22;149;51.094;17.002;2023-11-21T07:55:11;7.40;99.90
324;DHT22;149;51.094;17.002;2023-11-21T07:57:38;7.40;99.90
324;DHT22;149;51.094;17.002;2023-11-21T08:00:06;7.60;99.90
324;DHT22;149;51.094;17.002;2023-11-21T08:02:36;7.50;99.90
324;DHT22;149;51.094;17.002;2023-11-21T08:05:03;7.50;99.90
324;DHT22;149;51.094;17.002;2023-11-21T08:07:31;7.50;99.90
324;DHT22;149;51.094;17.002;2023-11-21T08:09:58;7.60;99.90
324;DHT22;149;51.094;17.002;2023-11-21T08:12:25;7.60;99.90
324;DHT22;149;51.094;17.002;2023-11-21T08:14:54;7.60;99.90
324;DHT22;149;51.094;17.002;2023-11-21T08:17:22;7.70;99.90
324;DHT22;149;51.094;17.002;2023-11-21T08:19:50;7.60;99.90
324;DHT22;149;51.094;17.002;2023-11-21T08:22:18;7.60;99.90
324;DHT22;149;51.094;17.002;2023-11-21T08:24:46;7.60;99.90
324;DHT22;149;51.094;17.002;2023-11-21T08:27:13;7.70;99.90
324;DHT22;149;51.094;17.002;2023-11-21T08:29:43;7.80;99.90
324;DHT22;149;51.094;17.002;2023-11-21T08:32:10;7.70;99.90
324;DHT22;149;51.094;17.002;2023-11-21T08:34:37;7.80;99.90
324;DHT22;149;51.094;17.002;2023-11-21T08:37:07;7.80;99.90
324;DHT22;149;51.094;17.002;2023-11-21T08:39:34;8.00;99.90
324;DHT22;149;51.094;17.002;2023-11-21T08:42:01;8.00;99.90
324;DHT22;149;51.094;17.002;2023-11-21T08:44:28;8.10;99.90
324;DHT22;149;51.094;17.002;2023-11-21T08:46:55;8.20;99.90
324;DHT22;149;51.094;17.002;2023-11-21T08:49:22;8.10;99.90
324;DHT22;149;51.094;17.002;2023-11-21T08:51:49;8.20;99.90
324;DHT22;149;51.094;17.002;2023-11-21T08:54:17;8.20;99.90
324;DHT22;149;51.094;17.002;2023-11-21T08:56:44;8.30;99.90
324;DHT22;149;51.094;17.002;2023-11-21T08:59:11;8.20;99.90
324;DHT22;149;51.094;17.002;2023-11-21T09:01:41;8.20;99.90
324;DHT22;149;51.094;17.002;2023-11-21T09:04:09;8.20;99.90
324;DHT22;149;51.094;17.002;2023-11-21T09:06:36;8.20;99.90
324;DHT22;149;51.094;17.002;2023-11-21T09:09:03;8.20;99.90
324;DHT22;149;51.094;17.002;2023-11-21T09:11:33;8.00;99.90
324;DHT22;149;51.094;17.002;2023-11-21T09:14:01;7.90;99.90
324;DHT22;149;51.094;17.002;2023-11-21T09:16:29;8.10;99.90
324;DHT22;149;51.094;17.002;2023-11-21T09:18:56;8.10;99.90
324;DHT22;149;51.094;17.002;2023-11-21T09:21:25;8.20;99.90
324;DHT22;149;51.094;17.002;2023-11-21T09:23:52;8.20;99.90
324;DHT22;149;51.094;17.002;2023-11-21T09:26:21;8.30;99.90
324;DHT22;149;51.094;17.002;2023-11-21T09:28:48;8.40;99.90
324;DHT22;149;51.094;17.002;2023-11-21T09:31:15;8.60;99.90
324;DHT22;149;51.094;17.002;2023-11-21T09:33:45;8.60;99.90
324;DHT22;149;51.094;17.002;2023-11-21T09:36:12;8.70;99.90
324;DHT22;149;51.094;17.002;2023-11-21T09:38:41;8.70;99.90
324;DHT22;149;51.094;17.002;2023-11-21T09:41:20;8.60;99.90
324;DHT22;149;51.094;17.002;2023-11-21T09:43:50;8.70;99.90
324;DHT22;149;51.094;17.002;2023-11-21T09:46:19;8.70;99.90
324;DHT22;149;51.094;17.002;2023-11-21T09:48:50;8.70;99.90
324;DHT22;149;51.094;17.002;2023-11-21T09:51:19;8.50;99.90
324;DHT22;149;51.094;17.002;2023-11-21T09:53:50;8.70;99.90
324;DHT22;149;51.094;17.002;2023-11-21T09:56:19;8.60;99.90
324;DHT22;149;51.094;17.002;2023-11-21T09:58:52;8.70;99.90
324;DHT22;149;51.094;17.002;2023-11-21T10:01:21;9.00;99.90
324;DHT22;149;51.094;17.002;2023-11-21T10:03:49;8.70;99.90
324;DHT22;149;51.094;17.002;2023-11-21T10:06:18;8.60;99.90
324;DHT22;149;51.094;17.002;2023-11-21T10:08:46;8.50;99.90
324;DHT22;149;51.094;17.002;2023-11-21T10:11:24;8.50;99.90
324;DHT22;149;51.094;17.002;2023-11-21T10:13:54;8.50;99.90
324;DHT22;149;51.094;17.002;2023-11-21T10:16:22;8.50;99.90
324;DHT22;149;51.094;17.002;2023-11-21T10:18:53;8.50;99.90
324;DHT22;149;51.094;17.002;2023-11-21T10:21:38;8.40;99.90
324;DHT22;149;51.094;17.002;2023-11-21T10:24:05;8.60;99.90
324;DHT22;149;51.094;17.002;2023-11-21T10:26:34;8.40;99.90
324;DHT22;149;51.094;17.002;2023-11-21T10:29:17;8.30;99.90
324;DHT22;149;51.094;17.002;2023-11-21T10:31:45;8.50;99.90
324;DHT22;149;51.094;17.002;2023-11-21T10:34:17;8.40;99.90
324;DHT22;149;51.094;17.002;2023-11-21T10:36:45;8.40;99.90
324;DHT22;149;51.094;17.002;2023-11-21T10:39:17;8.40;99.90
324;DHT22;149;51.094;17.002;2023-11-21T10:41:46;8.70;99.90
324;DHT22;149;51.094;17.002;2023-11-21T10:44:14;8.60;99.90
324;DHT22;149;51.094;17.002;2023-11-21T10:46:51;8.40;99.90
324;DHT22;149;51.094;17.002;2023-11-21T10:49:20;8.40;99.90
324;DHT22;149;51.094;17.002;2023-11-21T10:51:47;8.40;99.90
324;DHT22;149;51.094;17.002;2023-11-21T10:54:23;8.40;99.90
324;DHT22;149;51.094;17.002;2023-11-21T10:56:59;8.40;99.90
324;DHT22;149;51.094;17.002;2023-11-21T10:59:30;8.10;99.90
324;DHT22;149;51.094;17.002;2023-11-21T11:02:01;8.10;99.90
324;DHT22;149;51.094;17.002;2023-11-21T11:04:31;8.10;99.90
324;DHT22;149;51.094;17.002;2023-11-21T11:07:02;7.80;99.90
324;DHT22;149;51.094;17.002;2023-11-21T11:09:32;7.90;99.90
324;DHT22;149;51.094;17.002;2023-11-21T11:12:02;7.80;99.90
324;DHT22;149;51.094;17.002;2023-11-21T11:14:32;8.10;99.90
324;DHT22;149;51.094;17.002;2023-11-21T11:16:59;8.20;99.90
324;DHT22;149;51.094;17.002;2023-11-21T11:19:28;8.20;99.90
324;DHT22;149;51.094;17.002;2023-11-21T11:22:11;8.20;99.90
324;DHT22;149;51.094;17.002;2023-11-21T11:35:10;7.80;99.90
324;DHT22;149;51.094;17.002;2023-11-21T11:37:43;7.70;99.90
324;DHT22;149;51.094;17.002;2023-11-21T11:40:11;7.50;99.90
324;DHT22;149;51.094;17.002;2023-11-21T11:42:38;7.40;99.90
324;DHT22;149;51.094;17.002;2023-11-21T11:45:17;7.30;99.90
324;DHT22;149;51.094;17.002;2023-11-21T11:47:48;7.20;99.90
324;DHT22;149;51.094;17.002;2023-11-21T11:50:15;7.00;99.90
324;DHT22;149;51.094;17.002;2023-11-21T11:52:52;6.90;99.90
324;DHT22;149;51.094;17.002;2023-11-21T11:55:21;6.90;99.90
324;DHT22;149;51.094;17.002;2023-11-21T11:57:53;6.90;99.90
324;DHT22;149;51.094;17.002;2023-11-21T12:03:01;6.70;99.90
324;DHT22;149;51.094;17.002;2023-11-21T12:05:32;6.70;99.90
324;DHT22;149;51.094;17.002;2023-11-21T12:08:03;6.70;99.90
324;DHT22;149;51.094;17.002;2023-11-21T12:10:32;6.60;99.90
324;DHT22;149;51.094;17.002;2023-11-21T12:13:07;6.60;99.90
324;DHT22;149;51.094;17.002;2023-11-21T12:15:34;6.20;99.90
324;DHT22;149;51.094;17.002;2023-11-21T12:18:02;6.10;99.90
324;DHT22;149;51.094;17.002;2023-11-21T12:20:31;6.10;99.90
324;DHT22;149;51.094;17.002;2023-11-21T12:22:59;6.20;99.90
324;DHT22;149;51.094;17.002;2023-11-21T12:25:28;6.20;99.90
324;DHT22;149;51.094;17.002;2023-11-21T12:27:56;6.20;99.90
324;DHT22;149;51.094;17.002;2023-11-21T12:30:26;6.10;99.90
324;DHT22;149;51.094;17.002;2023-11-21T12:32:55;6.00;99.90
324;DHT22;149;51.094;17.002;2023-11-21T12:35:25;5.90;99.90
324;DHT22;149;51.094;17.002;2023-11-21T12:37:55;5.90;99.90
324;DHT22;149;51.094;17.002;2023-11-21T12:40:24;5.70;99.90
324;DHT22;149;51.094;17.002;2023-11-21T12:42:53;5.50;99.90
324;DHT22;149;51.094;17.002;2023-11-21T12:45:22;5.40;99.90
324;DHT22;149;51.094;17.002;2023-11-21T12:48:13;5.40;99.90
324;DHT22;149;51.094;17.002;2023-11-21T12:50:39;5.50;99.90
324;DHT22;149;51.094;17.002;2023-11-21T12:53:11;5.40;99.90
324;DHT22;149;51.094;17.002;2023-11-21T12:55:44;5.20;99.90
324;DHT22;149;51.094;17.002;2023-11-21T12:58:17;5.40;99.90
324;DHT22;149;51.094;17.002;2023-11-21T13:00:48;5.30;99.90
324;DHT22;149;51.094;17.002;2023-11-21T13:03:21;5.20;99.90
324;DHT22;149;51.094;17.002;2023-11-21T13:05:53;5.20;99.90
324;DHT22;149;51.094;17.002;2023-11-21T13:08:23;5.20;99.90
324;DHT22;149;51.094;17.002;2023-11-21T13:10:55;5.20;99.90
324;DHT22;149;51.094;17.002;2023-11-21T13:13:25;4.90;99.90
324;DHT22;149;51.094;17.002;2023-11-21T13:16:02;4.80;99.90
324;DHT22;149;51.094;17.002;2023-11-21T13:18:32;4.60;99.90
324;DHT22;149;51.094;17.002;2023-11-21T13:21:02;4.70;99.90
324;DHT22;149;51.094;17.002;2023-11-21T13:23:35;4.50;99.90
324;DHT22;149;51.094;17.002;2023-11-21T13:26:03;4.40;99.90
324;DHT22;149;51.094;17.002;2023-11-21T13:28:34;4.40;99.90
324;DHT22;149;51.094;17.002;2023-11-21T13:31:03;4.40;99.90
324;DHT22;149;51.094;17.002;2023-11-21T13:33:38;4.30;99.90
324;DHT22;149;51.094;17.002;2023-11-21T13:36:09;4.20;99.90
324;DHT22;149;51.094;17.002;2023-11-21T13:38:38;4.10;99.90
324;DHT22;149;51.094;17.002;2023-11-21T13:41:12;4.00;99.90
324;DHT22;149;51.094;17.002;2023-11-21T13:43:41;4.20;99.90
324;DHT22;149;51.094;17.002;2023-11-21T13:46:11;4.00;99.90
324;DHT22;149;51.094;17.002;2023-11-21T13:48:44;4.00;99.90
324;DHT22;149;51.094;17.002;2023-11-21T13:51:18;3.80;99.90
324;DHT22;149;51.094;17.002;2023-11-21T13:53:49;3.80;99.90
324;DHT22;149;51.094;17.002;2023-11-21T13:56:20;3.80;99.90
324;DHT22;149;51.094;17.002;2023-11-21T13:58:52;3.70;99.90
324;DHT22;149;51.094;17.002;2023-11-21T14:01:26;3.70;99.90
324;DHT22;149;51.094;17.002;2023-11-21T14:04:01;3.50;99.90
324;DHT22;149;51.094;17.002;2023-11-21T14:06:47;3.60;99.90
324;DHT22;149;51.094;17.002;2023-11-21T14:09:19;3.60;99.90
324;DHT22;149;51.094;17.002;2023-11-21T14:11:53;3.50;99.90
324;DHT22;149;51.094;17.002;2023-11-21T14:14:21;3.50;99.90
324;DHT22;149;51.094;17.002;2023-11-21T14:16:49;3.40;99.90
324;DHT22;149;51.094;17.002;2023-11-21T14:19:18;3.50;99.90
324;DHT22;149;51.094;17.002;2023-11-21T14:21:46;3.50;99.90
324;DHT22;149;51.094;17.002;2023-11-21T14:24:17;3.30;99.90
324;DHT22;149;51.094;17.002;2023-11-21T14:26:46;3.30;99.90
324;DHT22;149;51.094;17.002;2023-11-21T14:29:14;3.20;99.90
324;DHT22;149;51.094;17.002;2023-11-21T14:31:46;3.00;99.90
324;DHT22;149;51.094;17.002;2023-11-21T14:34:13;3.00;99.90
324;DHT22;149;51.094;17.002;2023-11-21T14:36:46;3.00;99.90
324;DHT22;149;51.094;17.002;2023-11-21T14:39:13;3.00;99.90
324;DHT22;149;51.094;17.002;2023-11-21T14:41:55;2.90;99.90
324;DHT22;149;51.094;17.002;2023-11-21T14:44:23;2.70;99.90
324;DHT22;149;51.094;17.002;2023-11-21T14:46:57;2.70;99.90
324;DHT22;149;51.094;17.002;2023-11-21T14:49:25;2.80;99.90
324;DHT22;149;51.094;17.002;2023-11-21T14:51:55;2.60;99.90
324;DHT22;149;51.094;17.002;2023-11-21T14:54:34;2.70;99.90
324;DHT22;149;51.094;17.002;2023-11-21T14:57:10;2.60;99.90
324;DHT22;149;51.094;17.002;2023-11-21T14:59:47;2.60;99.90
324;DHT22;149;51.094;17.002;2023-11-21T15:02:16;2.60;99.90
324;DHT22;149;51.094;17.002;2023-11-21T15:04:49;2.70;99.90
324;DHT22;149;51.094;17.002;2023-11-21T15:07:19;2.70;99.90
324;DHT22;149;51.094;17.002;2023-11-21T15:09:47;2.60;99.90
324;DHT22;149;51.094;17.002;2023-11-21T15:12:17;2.60;99.90
324;DHT22;149;51.094;17.002;2023-11-21T15:14:48;2.50;99.90
324;DHT22;149;51.094;17.002;2023-11-21T15:17:19;2.40;99.90
324;DHT22;149;51.094;17.002;2023-11-21T15:19:51;2.40;99.90
324;DHT22;149;51.094;17.002;2023-11-21T15:22:19;2.40;99.90
324;DHT22;149;51.094;17.002;2023-11-21T15:24:46;2.40;99.90
324;DHT22;149;51.094;17.002;2023-11-21T15:27:17;2.40;99.90
324;DHT22;149;51.094;17.002;2023-11-21T15:29:44;2.40;99.90
324;DHT22;149;51.094;17.002;2023-11-21T15:32:12;2.30;99.90
324;DHT22;149;51.094;17.002;2023-11-21T15:34:39;2.30;99.90
324;DHT22;149;51.094;17.002;2023-11-21T15:37:08;2.30;99.90
324;DHT22;149;51.094;17.002;2023-11-21T15:39:39;2.20;99.90
324;DHT22;149;51.094;17.002;2023-11-21T15:42:09;2.20;99.90
324;DHT22;149;51.094;17.002;2023-11-21T15:44:36;2.20;99.90
324;DHT22;149;51.094;17.002;2023-11-21T15:47:04;2.10;99.90
324;DHT22;149;51.094;17.002;2023-11-21T15:49:35;2.10;99.90
324;DHT22;149;51.094;17.002;2023-11-21T15:52:07;1.90;99.90
324;DHT22;149;51.094;17.002;2023-11-21T15:54:38;2.00;99.90
324;DHT22;149;51.094;17.002;2023-11-21T15:57:05;2.00;99.90
324;DHT22;149;51.094;17.002;2023-11-21T15:59:33;2.00;99.90
324;DHT22;149;51.094;17.002;2023-11-21T16:02:01;2.00;99.90
324;DHT22;149;51.094;17.002;2023-11-21T16:04:32;2.00;99.90
324;DHT22;149;51.094;17.002;2023-11-21T16:06:59;2.00;99.90
324;DHT22;149;51.094;17.002;2023-11-21T16:09:27;2.00;99.90
324;DHT22;149;51.094;17.002;2023-11-21T16:12:02;2.00;99.90
324;DHT22;149;51.094;17.002;2023-11-21T16:14:30;2.10;99.90
324;DHT22;149;51.094;17.002;2023-11-21T16:17:13;1.90;99.90
324;DHT22;149;51.094;17.002;2023-11-21T16:19:48;2.00;99.90
324;DHT22;149;51.094;17.002;2023-11-21T16:22:15;1.90;99.90
324;DHT22;149;51.094;17.002;2023-11-21T16:24:42;2.00;99.90
324;DHT22;149;51.094;17.002;2023-11-21T16:27:09;1.90;99.90
324;DHT22;149;51.094;17.002;2023-11-21T16:29:37;1.90;99.90
324;DHT22;149;51.094;17.002;2023-11-21T16:32:05;1.90;99.90
324;DHT22;149;51.094;17.002;2023-11-21T16:34:37;1.80;99.90
324;DHT22;149;51.094;17.002;2023-11-21T16:37:06;1.70;99.90
324;DHT22;149;51.094;17.002;2023-11-21T16:39:37;1.80;99.90
324;DHT22;149;51.094;17.002;2023-11-21T16:42:09;1.80;99.90
324;DHT22;149;51.094;17.002;2023-11-21T16:44:35;1.80;99.90
324;DHT22;149;51.094;17.002;2023-11-21T16:47:04;1.80;99.90
324;DHT22;149;51.094;17.002;2023-11-21T16:49:34;1.70;99.90
324;DHT22;149;51.094;17.002;2023-11-21T16:52:03;1.70;99.90
324;DHT22;149;51.094;17.002;2023-11-21T16:54:30;1.70;99.90
324;DHT22;149;51.094;17.002;2023-11-21T16:56:57;1.60;99.90
324;DHT22;149;51.094;17.002;2023-11-21T16:59:24;1.60;99.90
324;DHT22;149;51.094;17.002;2023-11-21T17:01:52;1.70;99.90